Silver Knolls, Nevada
Current Conditions -  °F | °C
As of 12:15 AM on Monday 26 Jan 2015 (Local Time) from KRTS Reporting Station
Clear Clear  
Wind Chill: 32°   Ceiling: Unl
Heat Index: 32°   Visibility: 10mi
Dew Point: 25°   Wind: 3mph
Humidity: 75%   Direction: 100°E
Pressure: 30.3"   Gusts: NA
Location:  39.7378°N, 119.889°W
Report Text: KRTS 260815Z AUTO 10003KT 10SM CLR 00/M04 A3030 RMK AO2
Loading
Personal Weather Stations






























Interactive Weather Map New forecast layout! Learn more

10-Day Weather Forecast

Advertisements
Track Severe Weather on mobile